Map

Track Data

SID SEASON NUMBER BASIN SUBBASIN NAME ISO_TIME NATURE LAT LON WMO_WIND WMO_PRES WMO_AGENCY TRACK_TYPE DIST2LAND LANDFALL IFLAG USA_AGENCY USA_ATCF_ID USA_LAT USA_LON USA_RECORD USA_STATUS USA_WIND USA_PRES USA_SSHS USA_R34_NE USA_R34_SE USA_R34_SW USA_R34_NW USA_R50_NE USA_R50_SE USA_R50_SW USA_R50_NW USA_R64_NE USA_R64_SE USA_R64_SW USA_R64_NW USA_POCI USA_ROCI USA_RMW USA_EYE TOKYO_LAT TOKYO_LON TOKYO_GRADE TOKYO_WIND TOKYO_PRES TOKYO_R50_DIR TOKYO_R50_LONG TOKYO_R50_SHORT TOKYO_R30_DIR TOKYO_R30_LONG TOKYO_R30_SHORT TOKYO_LAND CMA_LAT CMA_LON CMA_CAT CMA_WIND CMA_PRES HKO_LAT HKO_LON HKO_CAT HKO_WIND HKO_PRES NEWDELHI_LAT NEWDELHI_LON NEWDELHI_GRADE NEWDELHI_WIND NEWDELHI_PRES NEWDELHI_CI NEWDELHI_DP NEWDELHI_POCI REUNION_LAT REUNION_LON REUNION_TYPE REUNION_WIND REUNION_PRES REUNION_TNUM REUNION_CI REUNION_RMW REUNION_R34_NE REUNION_R34_SE REUNION_R34_SW REUNION_R34_NW REUNION_R50_NE REUNION_R50_SE REUNION_R50_SW REUNION_R50_NW REUNION_R64_NE REUNION_R64_SE REUNION_R64_SW REUNION_R64_NW BOM_LAT BOM_LON BOM_TYPE BOM_WIND BOM_PRES BOM_TNUM BOM_CI BOM_RMW BOM_R34_NE BOM_R34_SE BOM_R34_SW BOM_R34_NW BOM_R50_NE BOM_R50_SE BOM_R50_SW BOM_R50_NW BOM_R64_NE BOM_R64_SE BOM_R64_SW BOM_R64_NW BOM_ROCI BOM_POCI BOM_EYE BOM_POS_METHOD BOM_PRES_METHOD NADI_LAT NADI_LON NADI_CAT NADI_WIND NADI_PRES WELLINGTON_LAT WELLINGTON_LON WELLINGTON_WIND WELLINGTON_PRES DS824_LAT DS824_LON DS824_STAGE DS824_WIND DS824_PRES TD9636_LAT TD9636_LON TD9636_STAGE TD9636_WIND TD9636_PRES TD9635_LAT TD9635_LON TD9635_WIND TD9635_PRES TD9635_ROCI NEUMANN_LAT NEUMANN_LON NEUMANN_CLASS NEUMANN_WIND NEUMANN_PRES MLC_LAT MLC_LON MLC_CLASS MLC_WIND MLC_PRES USA_GUST BOM_GUST BOM_GUST_PER REUNION_GUST REUNION_GUST_PER USA_SEAHGT USA_SEARAD_NE USA_SEARAD_SE USA_SEARAD_SW USA_SEARAD_NW STORM_SPEED STORM_DIR
1927228N21088 1927 39 NI BB NOT_NAMED 1927-08-16 00:00:00 TS 21.1000 88.4000 main 55 44 _________O____ -1 21.1000 88.4000 TC 30 5 308
1927228N21088 1927 39 NI BB NOT_NAMED 1927-08-16 03:00:00 TS 21.2400 88.2084 main 44 30 _________PO___ -1 21.3100 88.1127 TC 30 21.1000 88.4000 1 6 304
1927228N21088 1927 39 NI BB NOT_NAMED 1927-08-16 06:00:00 TS 21.4133 87.9103 main 35 11 _________OP___ -1 21.5000 87.8000 TC 30 21.2833 88.0757 1 7 300
1927228N21088 1927 39 NI BB NOT_NAMED 1927-08-16 09:00:00 TS 21.5742 87.5789 main 11 0 _________PP___ -1 21.6575 87.4499 TC 30 21.4630 87.7508 1 7 297
1927228N21088 1927 39 NI BB NOT_NAMED 1927-08-16 12:00:00 TS 21.7181 87.2627 main 0 0 _________OP___ -1 21.8000 87.1000 TC 30 21.6362 87.4254 1 7 297
1927228N21088 1927 39 NI BB NOT_NAMED 1927-08-16 15:00:00 TS 21.8749 86.9499 main 0 0 _________PO___ -1 21.9499 86.7999 TC 30 21.8000 87.1000 1 7 298
1927228N21088 1927 39 NI BB NOT_NAMED 1927-08-16 18:00:00 TS 22.0265 86.6373 main 0 0 _________OP___ -1 22.1000 86.5000 TC 30 21.9529 86.7747 1 7 296
1927228N21088 1927 39 NI BB NOT_NAMED 1927-08-16 21:00:00 TS 22.1711 86.2997 main 0 0 _________PP___ -1 22.2425 86.1499 TC 30 22.0997 86.4495 1 7 295
1927228N21088 1927 39 NI BB NOT_NAMED 1927-08-17 00:00:00 TS 22.3233 85.9623 main 0 0 _________OP___ -1 22.4000 85.8000 TC 30 22.2467 86.1246 1 7 299
1927228N21088 1927 39 NI BB NOT_NAMED 1927-08-17 03:00:00 TS 22.4999 85.6500 main 0 0 _________PO___ -1 22.5999 85.5000 TC 30 22.4000 85.8000 1 7 302
1927228N21088 1927 39 NI BB NOT_NAMED 1927-08-17 06:00:00 TS 22.6878 85.3395 main 0 0 _________OP___ -1 22.8000 85.2000 TC 30 22.5757 85.4790 1 7 301
1927228N21088 1927 39 NI BB NOT_NAMED 1927-08-17 09:00:00 TS 22.8573 85.0074 main 0 0 _________PP___ -1 22.9575 84.8574 TC 30 22.7571 85.1574 1 7 298
1927228N21088 1927 39 NI BB NOT_NAMED 1927-08-17 12:00:00 TS 23.0175 84.6661 main 0 0 _________OP___ -1 23.1000 84.5000 TC 30 22.9350 84.8321 1 7 297
1927228N21088 1927 39 NI BB NOT_NAMED 1927-08-17 15:00:00 TS 23.1787 84.3250 main 0 0 _________PO___ -1 23.2574 84.1500 TC 30 23.1000 84.5000 1 7 296
1927228N21088 1927 39 NI BB NOT_NAMED 1927-08-17 18:00:00 TS 23.3216 83.9825 main 0 0 _________OP___ -1 23.4000 83.8000 TC 30 23.2431 84.1650 1 7 293
1927228N21088 1927 39 NI BB NOT_NAMED 1927-08-17 21:00:00 TS 23.4397 83.6397 main 0 0 _________PP___ -1 23.5074 83.4574 TC 30 23.3721 83.8221 1 7 289
1927228N21088 1927 39 NI BB NOT_NAMED 1927-08-18 00:00:00 TS 23.5450 83.2841 main 0 0 _________OP___ -1 23.6000 83.1000 TC 30 23.4900 83.4682 1 7 287
1927228N21088 1927 39 NI BB NOT_NAMED 1927-08-18 03:00:00 TS 23.6500 82.9037 main 0 0 _________PO___ -1 23.7000 82.7075 TC 30 23.6000 83.1000 1 8 286
1927228N21088 1927 39 NI BB NOT_NAMED 1927-08-18 06:00:00 TS 23.7557 82.4970 main 0 0 _________OP___ -1 23.8000 82.3000 TC 30 23.7114 82.6940 1 8 286
1927228N21088 1927 39 NI BB NOT_NAMED 1927-08-18 09:00:00 TS 23.8614 82.0813 main 0 0 _________PP___ -1 23.9075 81.8850 TC 30 23.8153 82.2775 1 8 285
1927228N21088 1927 39 NI BB NOT_NAMED 1927-08-18 12:00:00 TS 23.9557 81.6861 main 0 0 _________OP___ -1 24.0000 81.5000 TC 30 23.9115 81.8722 1 7 284
1927228N21088 1927 39 NI BB NOT_NAMED 1927-08-18 15:00:00 TS 24.0249 81.3387 main 0 0 _________PO___ -1 24.0499 81.1774 TC 30 24.0000 81.5000 1 6 283
1927228N21088 1927 39 NI BB NOT_NAMED 1927-08-18 18:00:00 TS 24.0843 81.0685 main 0 0 _________OP___ -1 24.1000 80.9000 TC 30 24.0687 81.2370 1 5 287
1927228N21088 1927 39 NI BB NOT_NAMED 1927-08-18 21:00:00 TS 24.1588 80.8443 main 0 0 _________PP___ -1 24.1846 80.6873 TC 30 24.1330 81.0012 1 5 290
1927228N21088 1927 39 NI BB NOT_NAMED 1927-08-19 00:00:00 TS 24.2530 80.5700 main 0 0 _________OP___ -1 24.3000 80.4000 TC 30 24.2059 80.7399 1 7 289
1927228N21088 1927 39 NI BB NOT_NAMED 1927-08-19 03:00:00 TS 24.3713 80.1513 main 0 0 _________PO___ -1 24.4426 79.9025 TC 30 24.3000 80.4000 1 9 287
1927228N21088 1927 39 NI BB NOT_NAMED 1927-08-19 06:00:00 TS 24.5208 79.5999 main 0 0 _________OP___ -1 24.6000 79.3000 TC 30 24.4416 79.8999 1 11 286
1927228N21088 1927 39 NI BB NOT_NAMED 1927-08-19 09:00:00 TS 24.6794 79.0056 main 0 0 _________PP___ -1 24.7575 78.6925 TC 30 24.6013 79.3186 1 11 286
1927228N21088 1927 39 NI BB NOT_NAMED 1927-08-19 12:00:00 TS 24.8301 78.4015 main 0 0 _________OP___ -1 24.9000 78.1000 TC 30 24.7602 78.7029 1 11 285
1927228N21088 1927 39 NI AS NOT_NAMED 1927-08-19 15:00:00 TS 24.9573 77.8424 main 0 0 _________PO___ -1 25.0147 77.5849 TC 30 24.9000 78.1000 1 10 283
1927228N21088 1927 39 NI AS NOT_NAMED 1927-08-19 18:00:00 TS 25.0471 77.3554 main 0 0 _________OP___ -1 25.1000 77.1000 TC 30 25.0075 77.5470 1 9 280
1927228N21088 1927 39 NI AS NOT_NAMED 1927-08-19 21:00:00 TS 25.1156 76.8657 main 0 0 _________PP___ -1 25.1579 76.6051 TC 30 25.0874 77.0394 1 9 278
1927228N21088 1927 39 NI AS NOT_NAMED 1927-08-20 00:00:00 TS 25.1658 76.4081 main 0 0 _________OP___ -1 25.2000 76.1000 TC 30 25.1487 76.5622 1 7 277
1927228N21088 1927 39 NI AS NOT_NAMED 1927-08-20 03:00:00 NR 25.2000 76.1000 main 0 __________O___ -1 TC 25.2000 76.1000 1 6 277

About IBTrACS Database

This database is a web-friendly format of International Best Track Archive for Climate Stewardship (IBTrACS), a global best track data archive curated by NOAA dating back to 1842.

Updated: 2021-11-26